createdAt,value
2018-07-11T00:01:55.874Z,19.57
2018-07-11T00:04:34.733Z,19.55
2018-07-11T00:07:03.317Z,19.56
2018-07-11T00:09:32.384Z,19.62
2018-07-11T00:12:00.992Z,19.58
2018-07-11T00:17:06.308Z,19.62
2018-07-11T00:19:35.812Z,19.63
2018-07-11T00:22:05.172Z,19.64
2018-07-11T00:24:34.115Z,19.67
2018-07-11T00:27:02.795Z,19.66
2018-07-11T00:29:31.728Z,19.60
2018-07-11T00:34:35.401Z,19.55
2018-07-11T00:37:04.067Z,19.56
2018-07-11T00:39:33.236Z,19.57
2018-07-11T00:42:06.832Z,19.58
2018-07-11T00:44:35.581Z,19.60
2018-07-11T00:47:10.529Z,19.61
2018-07-11T00:49:39.607Z,19.62
2018-07-11T00:52:13.225Z,19.63
2018-07-11T00:54:42.400Z,19.67
2018-07-11T00:57:11.058Z,19.67
2018-07-11T00:59:48.398Z,19.71
2018-07-11T01:02:17.287Z,19.76
2018-07-11T01:04:52.087Z,19.76
2018-07-11T01:07:20.699Z,19.77
2018-07-11T01:09:50.609Z,19.77
2018-07-11T01:12:19.835Z,19.79
2018-07-11T01:14:49.012Z,19.79
2018-07-11T01:17:22.842Z,19.83
2018-07-11T01:19:55.907Z,19.82
2018-07-11T01:22:24.839Z,19.80
2018-07-11T01:24:53.407Z,19.83
2018-07-11T01:27:21.924Z,19.81
2018-07-11T01:29:50.825Z,19.81
2018-07-11T01:32:19.416Z,19.82
2018-07-11T01:34:50.770Z,19.77
2018-07-11T01:37:22.693Z,19.75
2018-07-11T01:39:51.276Z,19.76
2018-07-11T01:42:26.475Z,19.76
2018-07-11T01:44:55.384Z,19.78
2018-07-11T01:47:24.528Z,19.80
2018-07-11T01:49:53.115Z,19.82
2018-07-11T01:52:32.932Z,19.84
2018-07-11T01:55:01.522Z,19.83
2018-07-11T01:57:30.683Z,19.80
2018-07-11T02:00:04.055Z,19.75
2018-07-11T02:02:32.680Z,19.70
2018-07-11T02:05:02.285Z,19.70
2018-07-11T02:07:30.891Z,19.69
2018-07-11T02:09:59.468Z,19.70
2018-07-11T02:12:29.193Z,19.68
2018-07-11T02:15:06.696Z,19.67
2018-07-11T02:17:37.222Z,19.67
2018-07-11T02:20:12.851Z,19.65
2018-07-11T02:22:45.545Z,19.64
2018-07-11T02:25:15.575Z,19.55
2018-07-11T02:27:46.296Z,19.50
2018-07-11T02:30:14.997Z,19.48
2018-07-11T02:32:48.428Z,19.43
2018-07-11T02:35:17.170Z,19.41
2018-07-11T02:37:45.731Z,19.44
2018-07-11T02:40:15.887Z,19.43
2018-07-11T02:42:44.513Z,19.43
2018-07-11T02:45:13.796Z,19.45
2018-07-11T02:47:43.733Z,19.47
2018-07-11T02:50:15.604Z,19.45
2018-07-11T02:52:50.007Z,19.41
2018-07-11T02:55:20.251Z,19.37
2018-07-11T02:57:49.265Z,19.33
2018-07-11T03:00:19.264Z,19.32
2018-07-11T03:02:47.881Z,19.25
2018-07-11T03:05:16.865Z,19.14
2018-07-11T03:07:48.457Z,19.05
2018-07-11T03:10:17.964Z,19.03
2018-07-11T03:12:53.231Z,19.00
2018-07-11T03:15:22.289Z,18.92
2018-07-11T03:17:50.862Z,18.90
2018-07-11T03:20:20.478Z,18.90
2018-07-11T03:25:22.735Z,18.80
2018-07-11T03:27:51.327Z,18.75
2018-07-11T03:31:11.744Z,18.67
2018-07-11T03:33:58.227Z,18.62
2018-07-11T03:36:27.268Z,18.62
2018-07-11T03:38:58.954Z,18.58
2018-07-11T03:41:28.332Z,18.49
2018-07-11T03:43:56.930Z,18.43
2018-07-11T03:46:25.546Z,18.45
2018-07-11T03:48:54.990Z,18.44
2018-07-11T03:51:36.017Z,18.42
2018-07-11T03:54:09.636Z,18.38
2018-07-11T03:56:38.259Z,18.30
2018-07-11T03:59:06.841Z,18.31
2018-07-11T04:01:47.140Z,18.31
2018-07-11T04:04:15.942Z,18.33
2018-07-11T04:06:44.549Z,18.35
2018-07-11T04:09:16.390Z,18.44
2018-07-11T04:11:44.906Z,18.53
2018-07-11T04:14:17.267Z,18.55
2018-07-11T04:16:46.216Z,18.57
2018-07-11T04:19:14.755Z,18.63
2018-07-11T04:21:43.296Z,18.73
2018-07-11T04:24:12.532Z,18.78
2018-07-11T04:26:41.181Z,18.85
2018-07-11T04:29:09.926Z,18.92
2018-07-11T04:31:39.173Z,18.94
2018-07-11T04:34:08.271Z,18.95
2018-07-11T04:36:36.939Z,18.98
2018-07-11T04:39:12.057Z,18.95
2018-07-11T04:41:41.514Z,18.93
2018-07-11T04:44:12.189Z,18.91
2018-07-11T04:46:41.388Z,18.85
2018-07-11T04:49:12.909Z,18.82
2018-07-11T04:51:48.058Z,18.82
2018-07-11T04:54:19.149Z,18.85
2018-07-11T04:56:53.656Z,18.93
2018-07-11T04:59:22.239Z,19.01
2018-07-11T05:01:54.739Z,18.90
2018-07-11T05:04:23.332Z,18.93
2018-07-11T05:06:51.986Z,18.95
2018-07-11T05:09:21.528Z,18.89
2018-07-11T05:11:54.710Z,18.86
2018-07-11T05:14:23.762Z,18.81
2018-07-11T05:16:52.435Z,18.87
2018-07-11T05:19:21.070Z,18.97
2018-07-11T05:21:49.749Z,19.00
2018-07-11T05:25:29.653Z,19.05
2018-07-11T05:27:59.017Z,19.17
2018-07-11T05:30:27.705Z,19.21
2018-07-11T05:32:56.323Z,19.25
2018-07-11T05:35:25.376Z,19.30
2018-07-11T05:37:54.010Z,19.37
2018-07-11T05:40:23.611Z,19.41
2018-07-11T05:42:52.590Z,19.45
2018-07-11T05:45:21.190Z,19.51
2018-07-11T05:47:49.943Z,19.49
2018-07-11T05:50:18.847Z,19.47
2018-07-11T05:52:47.516Z,19.42
2018-07-11T05:55:16.181Z,19.46
2018-07-11T05:57:46.066Z,19.49
2018-07-11T06:00:14.757Z,19.53
2018-07-11T06:02:44.430Z,19.56
2018-07-11T06:05:13.311Z,19.59
2018-07-11T06:07:41.834Z,19.62
2018-07-11T06:10:12.493Z,19.60
2018-07-11T06:12:42.605Z,19.63
2018-07-11T06:15:16.883Z,19.73
2018-07-11T06:17:45.605Z,19.91
2018-07-11T06:20:14.191Z,20.11
2018-07-11T06:22:42.730Z,20.28
2018-07-11T06:25:22.383Z,20.38
2018-07-11T06:27:50.910Z,20.39
2018-07-11T06:30:19.467Z,20.41
2018-07-11T06:34:54.436Z,20.49
2018-07-11T06:37:27.548Z,20.70
2018-07-11T06:39:56.286Z,20.90
2018-07-11T06:42:25.203Z,21.04
2018-07-11T06:44:53.791Z,21.11
2018-07-11T06:47:22.885Z,21.07
2018-07-11T06:49:51.745Z,21.06
2018-07-11T06:52:20.279Z,21.01
2018-07-11T06:54:49.466Z,20.95
2018-07-11T06:57:18.317Z,20.97
2018-07-11T06:59:47.920Z,21.15
2018-07-11T07:02:16.501Z,21.14
2018-07-11T07:04:45.321Z,21.20
2018-07-11T07:07:13.889Z,21.10
2018-07-11T07:09:52.372Z,20.98
2018-07-11T07:14:55.600Z,20.73
2018-07-11T07:17:24.209Z,20.69
2018-07-11T07:19:53.023Z,20.66
2018-07-11T07:24:46.794Z,20.75
2018-07-11T07:27:16.124Z,20.79
2018-07-11T07:29:44.689Z,20.95
2018-07-11T07:32:18.148Z,20.93
2018-07-11T07:34:47.001Z,20.84
2018-07-11T07:37:15.605Z,20.81
2018-07-11T07:39:44.191Z,20.81
2018-07-11T07:42:13.273Z,20.71
2018-07-11T12:50:45.999Z,29.54
2018-07-11T12:53:18.183Z,29.74
2018-07-11T12:55:48.967Z,30.38
2018-07-11T12:58:19.050Z,30.19
2018-07-11T13:00:49.303Z,30.56
2018-07-11T13:03:18.093Z,30.56
2018-07-11T13:05:46.923Z,30.75
2018-07-11T13:08:28.545Z,31.29
2018-07-11T13:10:57.425Z,31.92
2018-07-11T13:13:27.626Z,32.22
2018-07-11T13:15:56.292Z,31.81
2018-07-11T13:18:24.825Z,31.30
2018-07-11T13:20:53.920Z,31.10
2018-07-11T13:23:22.493Z,30.93
2018-07-11T13:25:51.092Z,30.25
2018-07-11T13:28:20.079Z,29.75
2018-07-11T13:30:54.880Z,29.56
2018-07-11T13:33:23.898Z,29.08
2018-07-11T13:35:54.673Z,29.67
2018-07-11T13:38:23.220Z,29.90
2018-07-11T13:40:51.903Z,29.95
2018-07-11T13:43:20.717Z,29.47
2018-07-11T13:45:49.484Z,29.03
2018-07-11T13:48:18.071Z,28.79
2018-07-11T13:50:48.192Z,28.41
2018-07-11T13:53:16.813Z,28.25
2018-07-11T13:55:45.446Z,27.97
2018-07-11T13:58:14.629Z,27.53
2018-07-11T14:00:44.004Z,27.34
2018-07-11T14:03:12.681Z,27.07
2018-07-11T14:05:42.590Z,26.84
2018-07-11T14:08:16.159Z,26.45
2018-07-11T14:10:44.802Z,26.18
2018-07-11T14:13:13.735Z,26.08
2018-07-11T14:15:42.328Z,25.93
2018-07-11T14:18:15.820Z,25.88
2018-07-11T14:20:44.699Z,25.75
2018-07-11T14:23:13.256Z,25.75
2018-07-11T14:25:42.556Z,25.74
2018-07-11T14:28:11.622Z,25.72
2018-07-11T14:30:42.160Z,25.58
2018-07-11T14:33:10.935Z,25.58
2018-07-11T14:35:46.289Z,25.49
2018-07-11T14:38:14.895Z,25.50
2018-07-11T14:40:44.181Z,25.32
2018-07-11T14:43:18.299Z,25.27
2018-07-11T14:45:47.040Z,25.25
2018-07-11T14:48:16.299Z,25.28
2018-07-11T14:50:45.687Z,25.26
2018-07-11T14:53:14.474Z,25.25
2018-07-11T14:55:43.341Z,25.26
2018-07-11T14:58:12.324Z,25.40
2018-07-11T15:00:44.310Z,25.58
2018-07-11T15:03:12.924Z,25.72
2018-07-11T15:05:42.827Z,25.87
2018-07-11T15:08:12.271Z,26.00
2018-07-11T15:10:41.505Z,26.05
2018-07-11T15:13:10.402Z,26.01
2018-07-11T15:15:39.055Z,26.01
2018-07-11T15:18:07.600Z,25.98
2018-07-11T15:20:36.780Z,26.01
2018-07-11T15:23:05.416Z,25.94
2018-07-11T15:25:34.075Z,25.93
2018-07-11T15:28:04.667Z,25.76
2018-07-11T15:30:33.213Z,25.77
2018-07-11T15:33:01.792Z,25.83
2018-07-11T15:35:32.205Z,25.88
2018-07-11T15:38:01.334Z,25.83
2018-07-11T15:40:30.825Z,25.80
2018-07-11T15:43:00.207Z,25.75
2018-07-11T15:45:29.029Z,25.70
2018-07-11T15:47:57.717Z,25.53
2018-07-11T15:50:26.675Z,25.44
2018-07-11T15:52:55.785Z,25.34
2018-07-11T15:55:26.188Z,25.21
2018-07-11T15:57:56.959Z,25.09
2018-07-11T16:00:30.930Z,25.03
2018-07-11T16:03:04.187Z,24.89
2018-07-11T16:05:33.180Z,24.87
2018-07-11T16:08:05.627Z,24.82
2018-07-11T16:10:48.103Z,24.79
2018-07-11T16:13:23.302Z,24.68
2018-07-11T16:15:52.421Z,24.57
2018-07-11T16:18:21.091Z,24.48
2018-07-11T16:20:58.378Z,24.44
2018-07-11T16:23:27.489Z,24.50
2018-07-11T16:25:56.127Z,24.53
2018-07-11T16:28:24.844Z,24.56
2018-07-11T16:30:54.984Z,24.58
2018-07-11T16:33:23.739Z,24.53
2018-07-11T16:35:56.143Z,24.46
2018-07-11T16:38:25.139Z,24.43
2018-07-11T16:40:54.624Z,24.43
2018-07-11T16:43:23.258Z,24.43
2018-07-11T16:45:53.138Z,24.39
2018-07-11T16:48:24.227Z,24.41
2018-07-11T16:50:53.255Z,24.45
2018-07-11T16:53:22.303Z,24.45
2018-07-11T16:55:51.854Z,24.47
2018-07-11T16:58:26.157Z,24.49
2018-07-11T17:00:55.523Z,24.51
2018-07-11T17:03:25.748Z,24.60
2018-07-11T17:06:09.692Z,24.80
2018-07-11T17:08:43.910Z,25.17
2018-07-11T17:11:22.502Z,25.71
2018-07-11T17:14:00.050Z,26.42
2018-07-11T17:16:50.414Z,27.01
2018-07-11T17:19:27.769Z,27.47
2018-07-11T17:21:56.741Z,27.86
2018-07-11T17:24:25.401Z,28.21
2018-07-11T17:26:56.574Z,28.32
2018-07-11T17:29:33.947Z,28.39
2018-07-11T17:32:07.161Z,28.26
2018-07-11T17:34:47.579Z,27.91
2018-07-11T17:37:19.617Z,27.58
2018-07-11T17:39:53.655Z,27.36
2018-07-11T17:42:25.457Z,27.05
2018-07-11T17:45:06.444Z,26.95
2018-07-11T17:47:50.390Z,26.34
2018-07-11T17:50:19.355Z,26.11
2018-07-11T17:53:00.691Z,25.70
2018-07-11T17:55:35.389Z,25.36
2018-07-11T17:58:10.826Z,25.12
2018-07-11T18:00:59.383Z,24.98
2018-07-11T18:03:53.014Z,24.77
2018-07-11T18:07:29.760Z,24.78
2018-07-11T18:10:07.821Z,24.49
2018-07-11T18:12:51.428Z,24.41
2018-07-11T18:15:31.356Z,24.25
2018-07-11T18:18:19.757Z,24.07
2018-07-11T18:21:39.799Z,23.87
2018-07-11T18:26:22.200Z,23.71
2018-07-11T18:29:25.686Z,23.39
2018-07-11T18:36:30.101Z,23.22
2018-07-11T18:39:18.350Z,22.96
2018-07-11T18:43:00.785Z,23.07
2018-07-11T18:45:39.333Z,23.04
2018-07-11T18:48:18.689Z,23.01
2018-07-11T18:51:00.400Z,23.10
2018-07-11T18:54:20.784Z,23.15
2018-07-11T18:57:10.612Z,22.90
2018-07-11T19:00:06.035Z,22.89
2018-07-11T19:03:16.639Z,22.88
2018-07-11T19:07:55.868Z,22.85
2018-07-11T19:11:02.351Z,22.83
2018-07-11T19:13:38.860Z,22.81
2018-07-11T19:17:50.780Z,22.69
2018-07-11T19:23:35.008Z,22.69
2018-07-11T19:31:03.589Z,22.64
2018-07-11T19:33:43.807Z,22.48
2018-07-11T19:36:23.658Z,22.32
2018-07-11T19:39:01.324Z,22.28
2018-07-11T19:43:44.232Z,22.14
2018-07-11T19:46:54.243Z,22.09
2018-07-11T19:51:39.807Z,22.02
2018-07-11T19:56:27.541Z,21.92
2018-07-11T19:58:56.181Z,21.93
2018-07-11T20:01:28.365Z,21.84
2018-07-11T20:03:57.295Z,21.85
2018-07-11T20:06:26.174Z,21.90
2018-07-11T20:08:55.103Z,21.92
2018-07-11T20:11:25.884Z,21.93
2018-07-11T20:13:54.984Z,21.96
2018-07-11T20:16:24.467Z,21.98
2018-07-11T20:18:53.260Z,22.06
2018-07-11T20:21:22.424Z,22.00
2018-07-11T20:23:51.233Z,22.01
2018-07-11T20:26:20.905Z,21.98
2018-07-11T20:28:49.900Z,22.01
2018-07-11T20:33:46.319Z,22.04
2018-07-11T20:36:20.911Z,22.04
2018-07-11T20:38:49.811Z,22.01
2018-07-11T20:41:18.396Z,22.04
2018-07-11T20:43:47.385Z,22.11
2018-07-11T20:46:16.273Z,22.10
2018-07-11T20:48:45.296Z,22.15
2018-07-11T20:51:15.257Z,22.23
2018-07-11T20:53:44.095Z,22.25
2018-07-11T20:56:12.644Z,22.25
2018-07-11T20:58:52.296Z,22.28
2018-07-11T21:01:32.065Z,22.32
2018-07-11T21:06:16.158Z,22.21
2018-07-11T21:12:08.191Z,21.99
2018-07-11T21:15:20.417Z,21.91
2018-07-11T21:20:11.817Z,21.91
2018-07-11T21:22:40.815Z,21.98
2018-07-11T21:25:09.495Z,22.01
2018-07-11T21:27:38.648Z,22.01
2018-07-11T21:30:07.228Z,22.05
2018-07-11T21:32:35.805Z,21.95
2018-07-11T21:35:04.876Z,21.91
2018-07-11T21:37:36.271Z,21.84
2018-07-11T21:40:06.104Z,21.83
2018-07-11T21:42:35.128Z,21.81
2018-07-11T21:45:07.047Z,21.79
2018-07-11T21:47:35.556Z,21.84
2018-07-11T21:50:06.005Z,21.84
2018-07-11T21:52:34.599Z,21.83
2018-07-11T21:55:03.216Z,21.82
2018-07-11T21:57:32.148Z,21.87
2018-07-11T22:00:00.676Z,21.87
2018-07-11T22:02:29.485Z,21.82
2018-07-11T22:04:58.306Z,21.81
2018-07-11T22:07:26.791Z,21.83
2018-07-11T22:09:57.286Z,21.79
2018-07-11T22:12:26.170Z,21.72
2018-07-11T22:14:56.524Z,21.77
2018-07-11T22:17:34.824Z,21.82
2018-07-11T22:20:03.436Z,21.84
2018-07-11T22:22:30.749Z,21.79
2018-07-11T22:24:58.047Z,21.76
2018-07-11T22:27:25.667Z,21.72
2018-07-11T22:29:52.922Z,21.68
2018-07-11T22:32:20.230Z,21.65
2018-07-11T22:34:48.780Z,21.58
2018-07-11T22:37:16.064Z,21.53
2018-07-11T22:39:43.404Z,21.47
2018-07-11T22:42:12.459Z,21.40
2018-07-11T22:44:39.715Z,21.36
2018-07-11T22:47:07.083Z,21.31
2018-07-11T22:52:13.367Z,21.29
2018-07-11T22:54:40.699Z,21.31
2018-07-11T22:57:08.029Z,21.26
2018-07-11T22:59:35.355Z,21.27
2018-07-11T23:02:09.527Z,21.28
2018-07-11T23:04:36.828Z,21.28
2018-07-11T23:07:04.127Z,21.21
2018-07-11T23:09:35.163Z,21.16
2018-07-11T23:12:03.860Z,21.10
2018-07-11T23:14:31.976Z,21.08
2018-07-11T23:17:01.020Z,21.00
2018-07-11T23:19:28.459Z,21.03
2018-07-11T23:21:55.889Z,21.04
2018-07-11T23:24:24.186Z,21.08
2018-07-11T23:26:51.637Z,21.07
2018-07-11T23:29:18.910Z,21.06
2018-07-11T23:31:47.971Z,20.97
2018-07-11T23:34:15.245Z,20.90
2018-07-11T23:36:42.630Z,20.80
2018-07-11T23:39:11.169Z,20.79
2018-07-11T23:41:38.459Z,20.73
2018-07-11T23:44:05.927Z,20.70
2018-07-11T23:46:33.608Z,20.61
2018-07-11T23:49:00.877Z,20.49
2018-07-11T23:51:32.920Z,20.49
2018-07-11T23:54:00.927Z,20.57
2018-07-11T23:59:02.423Z,20.56
